sensor_id;sensor_type;location;lat;lon;timestamp;P1;durP1;ratioP1;P2;durP2;ratioP2
50066;SDS011;35952;52.524;13.340;2022-11-20T00:00:00;16.70;;;11.73;;
50066;SDS011;35952;52.524;13.340;2022-11-20T00:02:26;19.10;;;11.33;;
50066;SDS011;35952;52.524;13.340;2022-11-20T00:04:51;17.83;;;12.20;;
50066;SDS011;35952;52.524;13.340;2022-11-20T00:07:17;17.97;;;12.13;;
50066;SDS011;35952;52.524;13.340;2022-11-20T00:09:42;14.03;;;10.10;;
50066;SDS011;35952;52.524;13.340;2022-11-20T00:12:08;18.90;;;12.13;;
50066;SDS011;35952;52.524;13.340;2022-11-20T00:14:33;16.90;;;11.17;;
50066;SDS011;35952;52.524;13.340;2022-11-20T00:16:59;18.53;;;12.53;;
50066;SDS011;35952;52.524;13.340;2022-11-20T00:19:24;17.37;;;11.43;;
50066;SDS011;35952;52.524;13.340;2022-11-20T00:21:50;16.70;;;10.70;;
50066;SDS011;35952;52.524;13.340;2022-11-20T00:24:18;15.80;;;12.05;;
50066;SDS011;35952;52.524;13.340;2022-11-20T00:26:44;15.43;;;10.80;;
50066;SDS011;35952;52.524;13.340;2022-11-20T00:29:09;17.97;;;12.10;;
50066;SDS011;35952;52.524;13.340;2022-11-20T00:31:35;17.65;;;10.57;;
50066;SDS011;35952;52.524;13.340;2022-11-20T00:34:01;16.53;;;11.83;;
50066;SDS011;35952;52.524;13.340;2022-11-20T00:36:27;13.07;;;9.77;;
50066;SDS011;35952;52.524;13.340;2022-11-20T00:38:54;13.93;;;11.13;;
50066;SDS011;35952;52.524;13.340;2022-11-20T00:41:21;14.40;;;10.93;;
50066;SDS011;35952;52.524;13.340;2022-11-20T00:43:48;15.30;;;11.05;;
50066;SDS011;35952;52.524;13.340;2022-11-20T00:46:15;19.30;;;11.73;;
50066;SDS011;35952;52.524;13.340;2022-11-20T00:48:42;13.65;;;10.68;;
50066;SDS011;35952;52.524;13.340;2022-11-20T00:51:09;17.10;;;11.90;;
50066;SDS011;35952;52.524;13.340;2022-11-20T00:53:37;18.60;;;11.65;;
50066;SDS011;35952;52.524;13.340;2022-11-20T00:56:07;14.30;;;9.87;;
50066;SDS011;35952;52.524;13.340;2022-11-20T00:58:38;16.98;;;10.90;;
50066;SDS011;35952;52.524;13.340;2022-11-20T01:01:14;25.25;;;11.65;;
50066;SDS011;35952;52.524;13.340;2022-11-20T01:03:43;14.52;;;11.18;;
50066;SDS011;35952;52.524;13.340;2022-11-20T01:06:14;15.32;;;11.20;;
50066;SDS011;35952;52.524;13.340;2022-11-20T01:08:42;15.40;;;9.88;;
50066;SDS011;35952;52.524;13.340;2022-11-20T01:11:10;15.50;;;11.63;;
50066;SDS011;35952;52.524;13.340;2022-11-20T01:13:37;21.33;;;11.77;;
50066;SDS011;35952;52.524;13.340;2022-11-20T01:18:40;14.25;;;11.38;;
50066;SDS011;35952;52.524;13.340;2022-11-20T01:21:11;17.88;;;10.57;;
50066;SDS011;35952;52.524;13.340;2022-11-20T01:23:39;14.93;;;11.15;;
50066;SDS011;35952;52.524;13.340;2022-11-20T01:26:07;14.02;;;10.15;;
50066;SDS011;35952;52.524;13.340;2022-11-20T01:28:34;20.70;;;12.23;;
50066;SDS011;35952;52.524;13.340;2022-11-20T01:31:00;15.40;;;11.63;;
50066;SDS011;35952;52.524;13.340;2022-11-20T01:33:26;18.07;;;11.90;;
50066;SDS011;35952;52.524;13.340;2022-11-20T01:35:52;15.23;;;10.65;;
50066;SDS011;35952;52.524;13.340;2022-11-20T01:38:18;19.10;;;13.27;;
50066;SDS011;35952;52.524;13.340;2022-11-20T01:40:54;23.75;;;13.25;;
50066;SDS011;35952;52.524;13.340;2022-11-20T01:43:20;17.73;;;11.07;;
50066;SDS011;35952;52.524;13.340;2022-11-20T01:45:56;21.85;;;12.95;;
50066;SDS011;35952;52.524;13.340;2022-11-20T01:48:36;15.43;;;11.48;;
50066;SDS011;35952;52.524;13.340;2022-11-20T01:51:06;19.58;;;13.07;;
50066;SDS011;35952;52.524;13.340;2022-11-20T01:53:37;21.02;;;12.75;;
50066;SDS011;35952;52.524;13.340;2022-11-20T01:56:03;18.77;;;12.70;;
50066;SDS011;35952;52.524;13.340;2022-11-20T01:58:33;17.92;;;12.43;;
50066;SDS011;35952;52.524;13.340;2022-11-20T02:01:03;15.10;;;11.90;;
50066;SDS011;35952;52.524;13.340;2022-11-20T02:03:29;18.15;;;11.63;;
50066;SDS011;35952;52.524;13.340;2022-11-20T02:05:58;17.92;;;13.05;;
50066;SDS011;35952;52.524;13.340;2022-11-20T02:08:37;19.40;;;12.00;;
50066;SDS011;35952;52.524;13.340;2022-11-20T02:11:03;15.00;;;12.00;;
50066;SDS011;35952;52.524;13.340;2022-11-20T02:13:29;22.67;;;13.57;;
50066;SDS011;35952;52.524;13.340;2022-11-20T02:16:21;19.73;;;13.18;;
50066;SDS011;35952;52.524;13.340;2022-11-20T02:18:49;15.63;;;11.50;;
50066;SDS011;35952;52.524;13.340;2022-11-20T02:24:10;20.50;;;12.38;;
50066;SDS011;35952;52.524;13.340;2022-11-20T02:29:23;15.77;;;11.85;;
50066;SDS011;35952;52.524;13.340;2022-11-20T02:31:58;16.90;;;12.02;;
50066;SDS011;35952;52.524;13.340;2022-11-20T02:34:26;25.27;;;13.23;;
50066;SDS011;35952;52.524;13.340;2022-11-20T02:36:53;20.48;;;12.82;;
50066;SDS011;35952;52.524;13.340;2022-11-20T02:39:19;20.90;;;11.95;;
50066;SDS011;35952;52.524;13.340;2022-11-20T02:41:47;19.00;;;12.70;;
50066;SDS011;35952;52.524;13.340;2022-11-20T02:44:12;21.43;;;13.60;;
50066;SDS011;35952;52.524;13.340;2022-11-20T02:46:38;18.30;;;12.17;;
50066;SDS011;35952;52.524;13.340;2022-11-20T02:49:04;19.50;;;12.40;;
50066;SDS011;35952;52.524;13.340;2022-11-20T02:51:29;17.20;;;12.17;;
50066;SDS011;35952;52.524;13.340;2022-11-20T02:53:55;15.57;;;12.43;;
50066;SDS011;35952;52.524;13.340;2022-11-20T02:56:21;20.50;;;13.70;;
50066;SDS011;35952;52.524;13.340;2022-11-20T02:58:47;24.33;;;13.37;;
50066;SDS011;35952;52.524;13.340;2022-11-20T03:01:12;20.43;;;14.33;;
50066;SDS011;35952;52.524;13.340;2022-11-20T03:03:38;19.53;;;11.90;;
50066;SDS011;35952;52.524;13.340;2022-11-20T03:06:04;18.13;;;13.20;;
50066;SDS011;35952;52.524;13.340;2022-11-20T03:08:29;21.50;;;13.17;;
50066;SDS011;35952;52.524;13.340;2022-11-20T03:10:55;19.30;;;11.77;;
50066;SDS011;35952;52.524;13.340;2022-11-20T03:13:20;19.37;;;13.10;;
50066;SDS011;35952;52.524;13.340;2022-11-20T03:15:46;17.83;;;13.43;;
50066;SDS011;35952;52.524;13.340;2022-11-20T03:18:11;21.10;;;13.07;;
50066;SDS011;35952;52.524;13.340;2022-11-20T03:20:38;19.80;;;13.13;;
50066;SDS011;35952;52.524;13.340;2022-11-20T03:23:04;19.90;;;13.83;;
50066;SDS011;35952;52.524;13.340;2022-11-20T03:25:30;20.17;;;12.50;;
50066;SDS011;35952;52.524;13.340;2022-11-20T03:27:55;21.73;;;11.47;;
50066;SDS011;35952;52.524;13.340;2022-11-20T03:30:21;15.90;;;11.87;;
50066;SDS011;35952;52.524;13.340;2022-11-20T03:32:47;16.57;;;12.73;;
50066;SDS011;35952;52.524;13.340;2022-11-20T03:35:12;19.97;;;13.70;;
50066;SDS011;35952;52.524;13.340;2022-11-20T03:37:38;19.33;;;13.40;;
50066;SDS011;35952;52.524;13.340;2022-11-20T03:40:03;19.80;;;12.73;;
50066;SDS011;35952;52.524;13.340;2022-11-20T03:42:29;18.38;;;12.45;;
50066;SDS011;35952;52.524;13.340;2022-11-20T03:48:35;20.40;;;13.18;;
50066;SDS011;35952;52.524;13.340;2022-11-20T03:51:10;19.27;;;13.20;;
50066;SDS011;35952;52.524;13.340;2022-11-20T03:53:40;21.02;;;12.40;;
50066;SDS011;35952;52.524;13.340;2022-11-20T03:56:07;18.88;;;13.15;;
50066;SDS011;35952;52.524;13.340;2022-11-20T03:58:34;19.77;;;13.10;;
50066;SDS011;35952;52.524;13.340;2022-11-20T04:01:17;21.45;;;15.02;;
50066;SDS011;35952;52.524;13.340;2022-11-20T04:03:47;20.60;;;13.60;;
50066;SDS011;35952;52.524;13.340;2022-11-20T04:06:14;19.67;;;13.98;;
50066;SDS011;35952;52.524;13.340;2022-11-20T04:08:42;24.92;;;13.98;;
50066;SDS011;35952;52.524;13.340;2022-11-20T04:11:29;23.20;;;14.07;;
50066;SDS011;35952;52.524;13.340;2022-11-20T04:13:56;28.65;;;15.85;;
50066;SDS011;35952;52.524;13.340;2022-11-20T04:16:24;24.55;;;14.15;;
50066;SDS011;35952;52.524;13.340;2022-11-20T04:18:51;24.50;;;13.98;;
50066;SDS011;35952;52.524;13.340;2022-11-20T04:21:20;19.33;;;13.43;;
50066;SDS011;35952;52.524;13.340;2022-11-20T04:23:46;19.15;;;12.77;;
50066;SDS011;35952;52.524;13.340;2022-11-20T04:26:11;22.90;;;13.60;;
50066;SDS011;35952;52.524;13.340;2022-11-20T04:28:38;19.87;;;15.00;;
50066;SDS011;35952;52.524;13.340;2022-11-20T04:33:34;21.90;;;14.60;;
50066;SDS011;35952;52.524;13.340;2022-11-20T04:36:07;24.05;;;13.40;;
50066;SDS011;35952;52.524;13.340;2022-11-20T04:38:36;22.65;;;14.75;;
50066;SDS011;35952;52.524;13.340;2022-11-20T04:41:03;21.17;;;13.80;;
50066;SDS011;35952;52.524;13.340;2022-11-20T04:43:30;20.73;;;12.63;;
50066;SDS011;35952;52.524;13.340;2022-11-20T04:45:56;23.20;;;13.95;;
50066;SDS011;35952;52.524;13.340;2022-11-20T04:48:22;19.38;;;14.48;;
50066;SDS011;35952;52.524;13.340;2022-11-20T04:50:48;26.17;;;15.05;;
50066;SDS011;35952;52.524;13.340;2022-11-20T04:53:16;20.77;;;13.03;;
50066;SDS011;35952;52.524;13.340;2022-11-20T04:55:43;17.80;;;12.57;;
50066;SDS011;35952;52.524;13.340;2022-11-20T04:58:08;20.07;;;13.03;;
50066;SDS011;35952;52.524;13.340;2022-11-20T05:00:34;18.93;;;13.13;;
50066;SDS011;35952;52.524;13.340;2022-11-20T05:02:59;18.47;;;12.83;;
50066;SDS011;35952;52.524;13.340;2022-11-20T05:05:25;21.00;;;14.40;;
50066;SDS011;35952;52.524;13.340;2022-11-20T05:07:51;20.60;;;14.40;;
50066;SDS011;35952;52.524;13.340;2022-11-20T05:10:16;18.40;;;12.70;;
50066;SDS011;35952;52.524;13.340;2022-11-20T05:12:42;19.23;;;12.80;;
50066;SDS011;35952;52.524;13.340;2022-11-20T05:15:07;17.73;;;12.47;;
50066;SDS011;35952;52.524;13.340;2022-11-20T05:17:33;21.73;;;13.40;;
50066;SDS011;35952;52.524;13.340;2022-11-20T05:19:59;20.27;;;13.30;;
50066;SDS011;35952;52.524;13.340;2022-11-20T05:22:24;20.50;;;13.47;;
50066;SDS011;35952;52.524;13.340;2022-11-20T05:24:50;20.63;;;13.37;;
50066;SDS011;35952;52.524;13.340;2022-11-20T05:27:15;18.40;;;13.67;;
50066;SDS011;35952;52.524;13.340;2022-11-20T05:29:41;21.67;;;14.43;;
50066;SDS011;35952;52.524;13.340;2022-11-20T05:32:06;22.07;;;13.83;;
50066;SDS011;35952;52.524;13.340;2022-11-20T05:34:34;23.95;;;11.75;;
50066;SDS011;35952;52.524;13.340;2022-11-20T05:37:00;19.70;;;12.83;;
50066;SDS011;35952;52.524;13.340;2022-11-20T05:39:26;20.20;;;13.70;;
50066;SDS011;35952;52.524;13.340;2022-11-20T05:41:51;19.73;;;11.93;;
50066;SDS011;35952;52.524;13.340;2022-11-20T05:44:36;17.95;;;11.55;;
50066;SDS011;35952;52.524;13.340;2022-11-20T05:47:02;20.77;;;13.00;;
50066;SDS011;35952;52.524;13.340;2022-11-20T05:49:27;21.13;;;13.10;;
50066;SDS011;35952;52.524;13.340;2022-11-20T05:51:53;19.83;;;12.70;;
50066;SDS011;35952;52.524;13.340;2022-11-20T05:54:18;20.20;;;13.50;;
50066;SDS011;35952;52.524;13.340;2022-11-20T05:56:44;21.70;;;13.97;;
50066;SDS011;35952;52.524;13.340;2022-11-20T05:59:09;18.63;;;13.50;;
50066;SDS011;35952;52.524;13.340;2022-11-20T06:01:35;18.20;;;12.13;;
50066;SDS011;35952;52.524;13.340;2022-11-20T06:04:01;18.67;;;12.90;;
50066;SDS011;35952;52.524;13.340;2022-11-20T06:06:26;19.40;;;13.70;;
50066;SDS011;35952;52.524;13.340;2022-11-20T06:08:52;22.27;;;12.70;;
50066;SDS011;35952;52.524;13.340;2022-11-20T06:11:17;17.27;;;12.30;;
50066;SDS011;35952;52.524;13.340;2022-11-20T06:13:43;17.23;;;12.47;;
50066;SDS011;35952;52.524;13.340;2022-11-20T06:16:10;21.48;;;14.10;;
50066;SDS011;35952;52.524;13.340;2022-11-20T06:18:37;18.67;;;12.85;;
50066;SDS011;35952;52.524;13.340;2022-11-20T06:21:04;20.43;;;13.43;;
50066;SDS011;35952;52.524;13.340;2022-11-20T06:23:35;21.38;;;14.90;;
50066;SDS011;35952;52.524;13.340;2022-11-20T06:26:02;18.77;;;13.27;;
50066;SDS011;35952;52.524;13.340;2022-11-20T06:28:38;19.10;;;14.32;;
50066;SDS011;35952;52.524;13.340;2022-11-20T06:31:04;18.03;;;13.23;;
50066;SDS011;35952;52.524;13.340;2022-11-20T06:33:30;21.77;;;13.18;;
50066;SDS011;35952;52.524;13.340;2022-11-20T06:35:56;19.80;;;14.20;;
50066;SDS011;35952;52.524;13.340;2022-11-20T06:38:23;22.05;;;12.45;;
50066;SDS011;35952;52.524;13.340;2022-11-20T06:40:49;17.40;;;12.18;;
50066;SDS011;35952;52.524;13.340;2022-11-20T06:43:15;20.60;;;12.90;;
50066;SDS011;35952;52.524;13.340;2022-11-20T06:45:40;21.97;;;15.00;;
50066;SDS011;35952;52.524;13.340;2022-11-20T06:48:06;21.60;;;12.87;;
50066;SDS011;35952;52.524;13.340;2022-11-20T06:50:31;19.63;;;13.23;;
50066;SDS011;35952;52.524;13.340;2022-11-20T06:53:00;23.77;;;14.20;;
50066;SDS011;35952;52.524;13.340;2022-11-20T06:55:27;24.33;;;16.05;;
50066;SDS011;35952;52.524;13.340;2022-11-20T06:57:53;21.10;;;14.50;;
50066;SDS011;35952;52.524;13.340;2022-11-20T07:00:18;18.73;;;13.00;;
50066;SDS011;35952;52.524;13.340;2022-11-20T07:02:44;24.20;;;14.10;;
50066;SDS011;35952;52.524;13.340;2022-11-20T07:05:09;19.83;;;13.90;;
50066;SDS011;35952;52.524;13.340;2022-11-20T07:07:35;22.23;;;14.87;;
50066;SDS011;35952;52.524;13.340;2022-11-20T07:10:00;24.60;;;15.27;;
50066;SDS011;35952;52.524;13.340;2022-11-20T07:12:26;20.73;;;14.80;;
50066;SDS011;35952;52.524;13.340;2022-11-20T07:14:51;15.90;;;11.37;;
50066;SDS011;35952;52.524;13.340;2022-11-20T07:17:17;19.07;;;12.00;;
50066;SDS011;35952;52.524;13.340;2022-11-20T07:19:42;33.03;;;15.10;;
50066;SDS011;35952;52.524;13.340;2022-11-20T07:22:08;24.37;;;13.30;;
50066;SDS011;35952;52.524;13.340;2022-11-20T07:24:34;17.77;;;14.00;;
50066;SDS011;35952;52.524;13.340;2022-11-20T07:26:59;22.13;;;14.63;;
50066;SDS011;35952;52.524;13.340;2022-11-20T07:29:25;19.53;;;13.20;;
50066;SDS011;35952;52.524;13.340;2022-11-20T07:31:51;17.50;;;13.63;;
50066;SDS011;35952;52.524;13.340;2022-11-20T07:34:16;23.60;;;15.33;;
50066;SDS011;35952;52.524;13.340;2022-11-20T07:36:42;22.60;;;14.17;;
50066;SDS011;35952;52.524;13.340;2022-11-20T07:39:07;32.03;;;18.00;;
50066;SDS011;35952;52.524;13.340;2022-11-20T07:41:33;21.87;;;14.07;;
50066;SDS011;35952;52.524;13.340;2022-11-20T07:43:58;28.47;;;16.70;;
50066;SDS011;35952;52.524;13.340;2022-11-20T07:46:24;22.13;;;14.63;;
50066;SDS011;35952;52.524;13.340;2022-11-20T07:48:49;23.50;;;15.43;;
50066;SDS011;35952;52.524;13.340;2022-11-20T07:51:15;23.07;;;14.40;;
50066;SDS011;35952;52.524;13.340;2022-11-20T07:53:40;19.67;;;13.00;;
50066;SDS011;35952;52.524;13.340;2022-11-20T07:56:06;19.10;;;14.37;;
50066;SDS011;35952;52.524;13.340;2022-11-20T07:58:32;23.33;;;14.87;;
50066;SDS011;35952;52.524;13.340;2022-11-20T08:01:05;20.20;;;15.25;;
50066;SDS011;35952;52.524;13.340;2022-11-20T08:03:32;23.08;;;14.63;;
50066;SDS011;35952;52.524;13.340;2022-11-20T08:05:58;19.83;;;14.40;;
50066;SDS011;35952;52.524;13.340;2022-11-20T08:08:25;20.67;;;14.63;;
50066;SDS011;35952;52.524;13.340;2022-11-20T08:10:51;21.60;;;13.52;;
50066;SDS011;35952;52.524;13.340;2022-11-20T08:13:17;23.33;;;14.90;;
50066;SDS011;35952;52.524;13.340;2022-11-20T08:16:01;18.80;;;12.77;;
50066;SDS011;35952;52.524;13.340;2022-11-20T08:18:26;18.73;;;12.97;;
50066;SDS011;35952;52.524;13.340;2022-11-20T08:20:52;19.47;;;13.63;;
50066;SDS011;35952;52.524;13.340;2022-11-20T08:23:17;18.17;;;13.73;;
50066;SDS011;35952;52.524;13.340;2022-11-20T08:25:43;24.37;;;14.80;;
50066;SDS011;35952;52.524;13.340;2022-11-20T08:28:13;22.73;;;15.00;;
50066;SDS011;35952;52.524;13.340;2022-11-20T08:30:38;24.37;;;14.97;;
50066;SDS011;35952;52.524;13.340;2022-11-20T08:33:08;25.47;;;15.40;;
50066;SDS011;35952;52.524;13.340;2022-11-20T08:35:34;18.23;;;13.60;;
50066;SDS011;35952;52.524;13.340;2022-11-20T08:38:01;20.88;;;14.75;;
50066;SDS011;35952;52.524;13.340;2022-11-20T08:40:28;21.17;;;15.23;;
50066;SDS011;35952;52.524;13.340;2022-11-20T08:42:53;27.23;;;14.10;;
50066;SDS011;35952;52.524;13.340;2022-11-20T08:45:19;25.60;;;15.77;;
50066;SDS011;35952;52.524;13.340;2022-11-20T08:47:45;22.80;;;14.50;;
50066;SDS011;35952;52.524;13.340;2022-11-20T08:50:11;21.83;;;15.00;;
50066;SDS011;35952;52.524;13.340;2022-11-20T08:52:38;26.52;;;17.00;;
50066;SDS011;35952;52.524;13.340;2022-11-20T08:55:04;27.10;;;16.87;;
50066;SDS011;35952;52.524;13.340;2022-11-20T08:57:31;19.98;;;14.57;;
50066;SDS011;35952;52.524;13.340;2022-11-20T08:59:57;25.40;;;17.17;;
50066;SDS011;35952;52.524;13.340;2022-11-20T09:02:23;20.33;;;13.65;;
50066;SDS011;35952;52.524;13.340;2022-11-20T09:04:49;28.63;;;17.40;;
50066;SDS011;35952;52.524;13.340;2022-11-20T09:07:14;23.23;;;15.43;;
50066;SDS011;35952;52.524;13.340;2022-11-20T09:09:40;22.63;;;14.63;;
50066;SDS011;35952;52.524;13.340;2022-11-20T09:12:05;22.43;;;13.87;;
50066;SDS011;35952;52.524;13.340;2022-11-20T09:14:31;25.30;;;15.83;;
50066;SDS011;35952;52.524;13.340;2022-11-20T09:16:58;23.50;;;14.63;;
50066;SDS011;35952;52.524;13.340;2022-11-20T09:19:24;20.60;;;14.63;;
50066;SDS011;35952;52.524;13.340;2022-11-20T09:21:49;21.23;;;13.50;;
50066;SDS011;35952;52.524;13.340;2022-11-20T09:24:15;22.70;;;14.67;;
50066;SDS011;35952;52.524;13.340;2022-11-20T09:26:41;20.90;;;13.90;;
50066;SDS011;35952;52.524;13.340;2022-11-20T09:29:07;22.33;;;13.30;;
50066;SDS011;35952;52.524;13.340;2022-11-20T09:31:32;22.90;;;14.50;;
50066;SDS011;35952;52.524;13.340;2022-11-20T09:33:58;26.03;;;16.40;;
50066;SDS011;35952;52.524;13.340;2022-11-20T09:36:23;23.17;;;14.70;;
50066;SDS011;35952;52.524;13.340;2022-11-20T09:38:49;26.50;;;16.60;;
50066;SDS011;35952;52.524;13.340;2022-11-20T09:55:10;21.42;;;14.10;;
50066;SDS011;35952;52.524;13.340;2022-11-20T09:57:42;21.27;;;14.13;;
50066;SDS011;35952;52.524;13.340;2022-11-20T10:00:12;24.05;;;14.98;;
50066;SDS011;35952;52.524;13.340;2022-11-20T10:03:22;19.40;;;13.93;;
50066;SDS011;35952;52.524;13.340;2022-11-20T10:05:35;23.27;;;14.20;;
50066;SDS011;35952;52.524;13.340;2022-11-20T10:08:25;20.10;;;13.57;;
50066;SDS011;35952;52.524;13.340;2022-11-20T10:14:01;22.20;;;12.98;;
50066;SDS011;35952;52.524;13.340;2022-11-20T10:16:42;22.98;;;15.63;;
50066;SDS011;35952;52.524;13.340;2022-11-20T10:22:18;23.83;;;13.27;;
50066;SDS011;35952;52.524;13.340;2022-11-20T10:24:56;18.63;;;13.75;;
50066;SDS011;35952;52.524;13.340;2022-11-20T10:27:55;38.95;;;13.65;;
50066;SDS011;35952;52.524;13.340;2022-11-20T10:30:42;23.02;;;12.80;;
50066;SDS011;35952;52.524;13.340;2022-11-20T10:35:49;17.23;;;13.20;;
50066;SDS011;35952;52.524;13.340;2022-11-20T10:38:25;22.45;;;14.60;;
50066;SDS011;35952;52.524;13.340;2022-11-20T10:40:59;19.10;;;14.27;;
50066;SDS011;35952;52.524;13.340;2022-11-20T10:43:46;20.58;;;13.85;;
50066;SDS011;35952;52.524;13.340;2022-11-20T10:46:18;24.73;;;13.60;;
50066;SDS011;35952;52.524;13.340;2022-11-20T10:48:49;23.30;;;14.88;;
50066;SDS011;35952;52.524;13.340;2022-11-20T10:51:22;18.65;;;12.27;;
50066;SDS011;35952;52.524;13.340;2022-11-20T10:56:42;20.55;;;12.73;;
50066;SDS011;35952;52.524;13.340;2022-11-20T10:59:24;20.40;;;13.80;;
50066;SDS011;35952;52.524;13.340;2022-11-20T11:02:19;20.42;;;12.95;;
50066;SDS011;35952;52.524;13.340;2022-11-20T11:04:55;19.95;;;14.13;;
50066;SDS011;35952;52.524;13.340;2022-11-20T11:07:24;19.25;;;13.35;;
50066;SDS011;35952;52.524;13.340;2022-11-20T11:09:54;18.70;;;12.50;;
50066;SDS011;35952;52.524;13.340;2022-11-20T11:12:21;16.05;;;11.13;;
50066;SDS011;35952;52.524;13.340;2022-11-20T11:14:53;19.17;;;12.90;;
50066;SDS011;35952;52.524;13.340;2022-11-20T11:17:24;14.77;;;12.52;;
50066;SDS011;35952;52.524;13.340;2022-11-20T11:22:29;16.48;;;11.68;;
50066;SDS011;35952;52.524;13.340;2022-11-20T11:24:57;20.05;;;14.13;;
50066;SDS011;35952;52.524;13.340;2022-11-20T11:27:23;14.93;;;10.68;;
50066;SDS011;35952;52.524;13.340;2022-11-20T11:29:49;14.00;;;10.67;;
50066;SDS011;35952;52.524;13.340;2022-11-20T11:32:17;18.63;;;11.90;;
50066;SDS011;35952;52.524;13.340;2022-11-20T11:34:44;19.40;;;12.48;;
50066;SDS011;35952;52.524;13.340;2022-11-20T11:37:14;20.57;;;11.73;;
50066;SDS011;35952;52.524;13.340;2022-11-20T11:39:43;15.75;;;11.82;;
50066;SDS011;35952;52.524;13.340;2022-11-20T11:42:13;17.55;;;12.45;;
50066;SDS011;35952;52.524;13.340;2022-11-20T11:44:46;15.63;;;12.13;;
50066;SDS011;35952;52.524;13.340;2022-11-20T11:50:24;17.95;;;10.57;;
50066;SDS011;35952;52.524;13.340;2022-11-20T11:52:56;15.48;;;10.98;;
50066;SDS011;35952;52.524;13.340;2022-11-20T11:55:32;15.20;;;9.90;;
50066;SDS011;35952;52.524;13.340;2022-11-20T11:58:15;16.17;;;10.95;;
50066;SDS011;35952;52.524;13.340;2022-11-20T12:00:51;14.50;;;10.57;;
50066;SDS011;35952;52.524;13.340;2022-11-20T12:03:39;13.95;;;10.60;;
50066;SDS011;35952;52.524;13.340;2022-11-20T12:06:10;15.00;;;10.98;;
50066;SDS011;35952;52.524;13.340;2022-11-20T12:08:46;15.60;;;10.10;;
50066;SDS011;35952;52.524;13.340;2022-11-20T12:14:37;16.75;;;10.90;;
50066;SDS011;35952;52.524;13.340;2022-11-20T12:17:03;24.92;;;14.93;;
50066;SDS011;35952;52.524;13.340;2022-11-20T12:19:30;14.17;;;11.97;;
50066;SDS011;35952;52.524;13.340;2022-11-20T12:30:24;16.85;;;11.73;;
50066;SDS011;35952;52.524;13.340;2022-11-20T12:44:57;11.00;;;8.07;;
50066;SDS011;35952;52.524;13.340;2022-11-20T12:52:57;10.35;;;8.48;;
50066;SDS011;35952;52.524;13.340;2022-11-20T12:55:41;14.15;;;9.25;;
50066;SDS011;35952;52.524;13.340;2022-11-20T12:58:22;13.13;;;8.73;;
50066;SDS011;35952;52.524;13.340;2022-11-20T13:01:10;11.65;;;9.18;;
50066;SDS011;35952;52.524;13.340;2022-11-20T13:04:20;12.73;;;8.88;;
50066;SDS011;35952;52.524;13.340;2022-11-20T13:07:02;11.35;;;8.45;;
50066;SDS011;35952;52.524;13.340;2022-11-20T13:09:30;11.35;;;9.02;;
50066;SDS011;35952;52.524;13.340;2022-11-20T13:12:03;10.95;;;9.35;;
50066;SDS011;35952;52.524;13.340;2022-11-20T13:14:40;15.40;;;9.60;;
50066;SDS011;35952;52.524;13.340;2022-11-20T13:17:31;14.68;;;9.15;;
50066;SDS011;35952;52.524;13.340;2022-11-20T13:20:01;12.68;;;9.05;;
50066;SDS011;35952;52.524;13.340;2022-11-20T13:22:42;15.25;;;9.13;;
50066;SDS011;35952;52.524;13.340;2022-11-20T13:25:34;11.68;;;9.25;;
50066;SDS011;35952;52.524;13.340;2022-11-20T13:28:03;11.88;;;9.38;;
50066;SDS011;35952;52.524;13.340;2022-11-20T13:30:35;14.18;;;8.77;;
50066;SDS011;35952;52.524;13.340;2022-11-20T13:33:30;16.35;;;11.82;;
50066;SDS011;35952;52.524;13.340;2022-11-20T13:36:01;16.75;;;11.35;;
50066;SDS011;35952;52.524;13.340;2022-11-20T13:38:42;14.52;;;9.52;;
50066;SDS011;35952;52.524;13.340;2022-11-20T13:41:10;16.38;;;10.77;;
50066;SDS011;35952;52.524;13.340;2022-11-20T13:43:58;14.65;;;9.63;;
50066;SDS011;35952;52.524;13.340;2022-11-20T13:46:40;16.13;;;10.95;;
50066;SDS011;35952;52.524;13.340;2022-11-20T13:49:09;12.07;;;9.70;;
50066;SDS011;35952;52.524;13.340;2022-11-20T14:00:14;15.98;;;8.13;;
50066;SDS011;35952;52.524;13.340;2022-11-20T14:05:55;13.25;;;9.43;;
50066;SDS011;35952;52.524;13.340;2022-11-20T14:08:39;15.75;;;9.45;;
50066;SDS011;35952;52.524;13.340;2022-11-20T14:11:16;15.90;;;9.75;;
50066;SDS011;35952;52.524;13.340;2022-11-20T14:13:54;16.27;;;9.32;;
50066;SDS011;35952;52.524;13.340;2022-11-20T14:16:24;17.38;;;10.98;;
50066;SDS011;35952;52.524;13.340;2022-11-20T14:18:52;12.52;;;9.65;;
50066;SDS011;35952;52.524;13.340;2022-11-20T14:21:22;19.13;;;10.95;;
50066;SDS011;35952;52.524;13.340;2022-11-20T14:23:49;16.00;;;9.45;;
50066;SDS011;35952;52.524;13.340;2022-11-20T14:26:18;13.13;;;9.05;;
50066;SDS011;35952;52.524;13.340;2022-11-20T14:28:47;16.25;;;9.30;;
50066;SDS011;35952;52.524;13.340;2022-11-20T14:31:17;12.30;;;9.30;;
50066;SDS011;35952;52.524;13.340;2022-11-20T14:33:48;14.30;;;9.82;;
50066;SDS011;35952;52.524;13.340;2022-11-20T14:36:17;13.53;;;9.33;;
50066;SDS011;35952;52.524;13.340;2022-11-20T14:38:45;16.23;;;9.68;;
50066;SDS011;35952;52.524;13.340;2022-11-20T14:41:21;15.77;;;10.30;;
50066;SDS011;35952;52.524;13.340;2022-11-20T14:43:56;13.80;;;9.55;;
50066;SDS011;35952;52.524;13.340;2022-11-20T14:46:23;14.45;;;9.52;;
50066;SDS011;35952;52.524;13.340;2022-11-20T14:48:50;16.70;;;9.88;;
50066;SDS011;35952;52.524;13.340;2022-11-20T14:56:53;15.10;;;10.35;;
50066;SDS011;35952;52.524;13.340;2022-11-20T14:59:23;12.52;;;8.60;;
50066;SDS011;35952;52.524;13.340;2022-11-20T15:01:54;14.15;;;10.20;;
50066;SDS011;35952;52.524;13.340;2022-11-20T15:04:25;19.15;;;10.15;;
50066;SDS011;35952;52.524;13.340;2022-11-20T15:06:52;17.50;;;10.13;;
50066;SDS011;35952;52.524;13.340;2022-11-20T15:09:20;23.10;;;11.10;;
50066;SDS011;35952;52.524;13.340;2022-11-20T15:11:55;14.30;;;9.60;;
50066;SDS011;35952;52.524;13.340;2022-11-20T15:14:23;12.20;;;9.60;;
50066;SDS011;35952;52.524;13.340;2022-11-20T15:16:50;13.95;;;9.15;;
50066;SDS011;35952;52.524;13.340;2022-11-20T15:19:24;14.35;;;9.68;;
50066;SDS011;35952;52.524;13.340;2022-11-20T15:21:51;19.55;;;9.35;;
50066;SDS011;35952;52.524;13.340;2022-11-20T15:24:17;14.40;;;10.47;;
50066;SDS011;35952;52.524;13.340;2022-11-20T15:26:43;15.30;;;9.70;;
50066;SDS011;35952;52.524;13.340;2022-11-20T15:29:09;14.23;;;10.13;;
50066;SDS011;35952;52.524;13.340;2022-11-20T15:31:36;15.65;;;10.32;;
50066;SDS011;35952;52.524;13.340;2022-11-20T15:34:07;12.80;;;9.35;;
50066;SDS011;35952;52.524;13.340;2022-11-20T15:36:36;12.93;;;9.77;;
50066;SDS011;35952;52.524;13.340;2022-11-20T15:39:01;18.83;;;11.10;;
50066;SDS011;35952;52.524;13.340;2022-11-20T15:41:29;15.98;;;9.32;;
50066;SDS011;35952;52.524;13.340;2022-11-20T15:43:54;17.00;;;11.73;;
50066;SDS011;35952;52.524;13.340;2022-11-20T15:46:23;14.63;;;9.10;;
50066;SDS011;35952;52.524;13.340;2022-11-20T15:48:56;15.02;;;10.50;;
50066;SDS011;35952;52.524;13.340;2022-11-20T15:53:51;16.48;;;10.75;;
50066;SDS011;35952;52.524;13.340;2022-11-20T15:56:17;16.27;;;11.23;;